createdAt,value
2023-11-18T00:00:14.895Z,22.36
2023-11-18T00:02:44.660Z,21.79
2023-11-18T00:05:13.275Z,21.97
2023-11-18T00:07:41.271Z,22.10
2023-11-18T00:10:09.876Z,22.23
2023-11-18T00:12:42.173Z,22.07
2023-11-18T00:15:13.146Z,22.25
2023-11-18T00:17:41.728Z,22.23
2023-11-18T00:20:11.090Z,21.72
2023-11-18T00:22:39.413Z,21.36
2023-11-18T00:25:10.717Z,21.62
2023-11-18T00:27:38.930Z,21.47
2023-11-18T00:30:09.799Z,21.72
2023-11-18T00:32:38.158Z,22.36
2023-11-18T00:35:06.927Z,21.31
2023-11-18T00:37:35.246Z,20.81
2023-11-18T00:40:03.768Z,21.26
2023-11-18T00:42:32.811Z,20.80
2023-11-18T00:45:00.560Z,20.45
2023-11-18T00:47:28.608Z,21.11
2023-11-18T00:49:56.509Z,20.37
2023-11-18T00:52:24.442Z,20.58
2023-11-18T00:54:52.188Z,19.81
2023-11-18T00:57:19.867Z,21.60
2023-11-18T00:59:48.327Z,20.19
2023-11-18T01:02:16.210Z,19.79
2023-11-18T01:04:44.402Z,19.93
2023-11-18T01:07:12.225Z,20.37
2023-11-18T01:09:40.442Z,19.71
2023-11-18T01:12:11.276Z,19.73
2023-11-18T01:14:40.921Z,19.71
2023-11-18T01:17:10.345Z,20.14
2023-11-18T01:19:38.270Z,20.99
2023-11-18T01:22:07.283Z,21.48
2023-11-18T01:24:35.370Z,20.63
2023-11-18T01:27:03.707Z,21.29
2023-11-18T01:29:32.222Z,20.75
2023-11-18T01:32:00.129Z,20.33
2023-11-18T01:34:29.468Z,19.77
2023-11-18T01:36:58.427Z,19.93
2023-11-18T01:39:27.849Z,19.45
2023-11-18T01:41:56.872Z,20.10
2023-11-18T01:44:25.420Z,20.10
2023-11-18T01:46:54.892Z,20.06
2023-11-18T01:49:24.057Z,19.60
2023-11-18T01:51:53.104Z,19.40
2023-11-18T01:54:22.747Z,19.88
2023-11-18T01:56:53.092Z,20.18
2023-11-18T01:59:21.107Z,18.70
2023-11-18T02:01:52.462Z,18.43
2023-11-18T02:04:21.813Z,18.07
2023-11-18T02:06:51.190Z,17.51
2023-11-18T02:09:30.412Z,16.71
2023-11-18T02:12:01.292Z,16.17
2023-11-18T02:14:31.910Z,16.48
2023-11-18T02:17:04.637Z,15.64
2023-11-18T02:19:36.097Z,15.66
2023-11-18T02:22:05.284Z,15.46
2023-11-18T02:24:42.726Z,14.44
2023-11-18T02:27:13.125Z,14.26
2023-11-18T02:29:44.626Z,13.49
2023-11-18T02:32:33.523Z,14.01
2023-11-18T02:35:31.043Z,13.70
2023-11-18T02:38:01.688Z,13.34
2023-11-18T02:40:36.806Z,13.07
2023-11-18T02:43:06.856Z,12.86
2023-11-18T02:45:37.318Z,12.84
2023-11-18T02:48:08.571Z,12.29
2023-11-18T02:50:37.459Z,12.46
2023-11-18T02:53:06.707Z,12.30
2023-11-18T02:55:34.602Z,12.47
2023-11-18T02:58:06.616Z,12.03
2023-11-18T03:00:35.829Z,11.72
2023-11-18T03:03:04.260Z,12.38
2023-11-18T03:05:32.555Z,11.67
2023-11-18T03:08:00.370Z,11.85
2023-11-18T03:10:28.152Z,12.27
2023-11-18T03:12:56.237Z,12.26
2023-11-18T03:15:24.617Z,12.09
2023-11-18T03:17:53.469Z,11.75
2023-11-18T03:20:24.162Z,11.56
2023-11-18T03:22:53.349Z,11.34
2023-11-18T03:25:24.767Z,11.11
2023-11-18T03:27:55.901Z,11.23
2023-11-18T03:30:23.681Z,11.34
2023-11-18T03:32:51.314Z,10.90
2023-11-18T03:35:19.265Z,10.83
2023-11-18T03:37:47.122Z,11.04
2023-11-18T03:40:16.695Z,11.12
2023-11-18T03:42:47.713Z,10.79
2023-11-18T03:45:19.658Z,10.41
2023-11-18T03:47:49.017Z,10.04
2023-11-18T03:50:17.344Z,10.04
2023-11-18T03:52:45.088Z,9.92
2023-11-18T03:55:13.129Z,9.90
2023-11-18T03:57:41.723Z,9.73
2023-11-18T04:00:12.939Z,9.61
2023-11-18T04:02:41.738Z,9.34
2023-11-18T04:05:11.297Z,9.81
2023-11-18T04:07:39.354Z,10.38
2023-11-18T04:10:08.360Z,9.88
2023-11-18T04:12:36.045Z,10.56
2023-11-18T04:15:05.857Z,10.16
2023-11-18T04:17:34.426Z,10.00
2023-11-18T04:20:05.580Z,10.81
2023-11-18T04:22:33.367Z,10.77
2023-11-18T04:25:01.094Z,10.57
2023-11-18T04:27:28.764Z,10.45
2023-11-18T04:29:56.385Z,10.08
2023-11-18T04:32:24.038Z,9.67
2023-11-18T04:34:52.508Z,9.94
2023-11-18T04:37:20.224Z,9.88
2023-11-18T04:39:48.148Z,9.97
2023-11-18T04:42:16.790Z,9.08
2023-11-18T04:44:45.130Z,9.19
2023-11-18T04:47:12.924Z,9.17
2023-11-18T04:49:41.731Z,9.19
2023-11-18T04:52:09.394Z,9.10
2023-11-18T04:54:37.689Z,9.15
2023-11-18T04:57:05.524Z,8.61
2023-11-18T04:59:33.297Z,8.81
2023-11-18T05:02:03.969Z,8.78
2023-11-18T05:04:31.951Z,8.33
2023-11-18T05:06:59.687Z,8.69
2023-11-18T05:09:27.369Z,8.20
2023-11-18T05:11:56.239Z,8.29
2023-11-18T05:14:24.046Z,7.91
2023-11-18T05:16:51.965Z,7.21
2023-11-18T05:19:19.641Z,6.80
2023-11-18T05:21:50.951Z,6.11
2023-11-18T05:24:19.001Z,5.96
2023-11-18T05:26:46.743Z,5.59
2023-11-18T05:29:17.845Z,4.98
2023-11-18T05:31:46.681Z,4.74
2023-11-18T05:34:14.512Z,4.67
2023-11-18T05:36:42.179Z,4.41
2023-11-18T05:39:10.832Z,4.58
2023-11-18T05:41:41.059Z,4.48
2023-11-18T05:44:10.926Z,4.29
2023-11-18T05:46:40.486Z,4.22
2023-11-18T05:49:09.349Z,4.63
2023-11-18T05:51:37.501Z,4.51
2023-11-18T05:54:05.414Z,4.08
2023-11-18T05:56:33.492Z,3.84
2023-11-18T05:59:04.395Z,3.80
2023-11-18T06:01:32.877Z,3.56
2023-11-18T06:04:01.932Z,3.86
2023-11-18T06:06:30.471Z,3.59
2023-11-18T06:09:00.451Z,3.74
2023-11-18T06:11:30.231Z,3.76
2023-11-18T06:13:57.880Z,3.18
2023-11-18T06:16:27.576Z,3.63
2023-11-18T06:18:57.050Z,3.52
2023-11-18T06:21:32.405Z,3.52
2023-11-18T06:24:02.138Z,3.62
2023-11-18T06:26:30.118Z,3.57
2023-11-18T06:28:58.716Z,3.68
2023-11-18T06:31:26.465Z,3.72
2023-11-18T06:33:54.566Z,3.88
2023-11-18T06:36:23.979Z,3.80
2023-11-18T06:38:53.440Z,3.65
2023-11-18T06:41:27.612Z,3.88
2023-11-18T06:43:55.541Z,3.76
2023-11-18T06:46:26.951Z,3.56
2023-11-18T06:48:55.902Z,3.43
2023-11-18T06:51:25.622Z,3.14
2023-11-18T06:53:57.352Z,3.01
2023-11-18T06:56:29.098Z,3.07
2023-11-18T06:58:57.013Z,2.55
2023-11-18T07:01:24.814Z,2.65
2023-11-18T07:03:54.414Z,3.04
2023-11-18T07:06:28.051Z,2.79
2023-11-18T07:09:01.790Z,2.72
2023-11-18T07:11:29.600Z,2.72
2023-11-18T07:13:58.232Z,2.86
2023-11-18T07:16:26.766Z,3.26
2023-11-18T07:18:55.210Z,3.10
2023-11-18T07:21:23.740Z,2.92
2023-11-18T07:23:51.347Z,2.96
2023-11-18T07:26:19.266Z,3.06
2023-11-18T07:28:47.200Z,2.90
2023-11-18T07:31:14.993Z,2.77
2023-11-18T07:33:45.830Z,2.68
2023-11-18T07:36:13.474Z,2.91
2023-11-18T07:38:41.466Z,3.00
2023-11-18T07:41:10.676Z,2.78
2023-11-18T07:43:38.582Z,2.97
2023-11-18T07:46:09.151Z,3.12
2023-11-18T07:48:37.124Z,3.20
2023-11-18T07:51:05.215Z,3.26
2023-11-18T07:53:33.039Z,2.88
2023-11-18T07:56:02.852Z,3.19
2023-11-18T07:58:30.688Z,3.13
2023-11-18T08:01:00.634Z,3.22
2023-11-18T08:03:29.201Z,3.27
2023-11-18T08:05:56.963Z,2.98
2023-11-18T08:08:24.674Z,3.10
2023-11-18T08:10:52.458Z,2.83
2023-11-18T08:13:20.335Z,3.04
2023-11-18T08:15:48.329Z,3.04
2023-11-18T08:18:16.856Z,3.09
2023-11-18T08:20:45.926Z,3.19
2023-11-18T08:23:13.754Z,2.85
2023-11-18T08:25:41.671Z,3.09
2023-11-18T08:28:10.812Z,3.03
2023-11-18T08:30:41.486Z,2.96
2023-11-18T08:33:12.252Z,2.82
2023-11-18T08:35:41.476Z,3.10
2023-11-18T08:38:09.580Z,3.07
2023-11-18T08:40:37.448Z,2.86
2023-11-18T08:43:08.859Z,3.01
2023-11-18T08:45:38.605Z,3.38
2023-11-18T08:48:10.103Z,2.92
2023-11-18T08:50:41.479Z,3.11
2023-11-18T08:53:11.453Z,2.93
2023-11-18T08:55:48.304Z,3.12
2023-11-18T08:58:35.183Z,3.05
2023-11-18T09:01:07.663Z,3.17
2023-11-18T09:03:36.021Z,3.12
2023-11-18T09:06:07.887Z,3.06
2023-11-18T09:08:40.194Z,3.09
2023-11-18T09:11:12.095Z,3.06
2023-11-18T09:13:40.639Z,2.96
2023-11-18T09:16:12.407Z,3.07
2023-11-18T09:18:43.599Z,3.03
2023-11-18T09:21:24.338Z,2.99
2023-11-18T09:23:52.227Z,3.04
2023-11-18T09:26:22.534Z,2.99
2023-11-18T09:28:51.546Z,2.83
2023-11-18T09:31:19.416Z,2.97
2023-11-18T09:33:53.812Z,2.89
2023-11-18T09:36:23.889Z,3.40
2023-11-18T09:38:52.179Z,3.38
2023-11-18T09:41:20.065Z,3.11
2023-11-18T09:43:49.343Z,3.53
2023-11-18T09:46:25.670Z,3.48
2023-11-18T09:49:15.802Z,3.44
2023-11-18T09:51:48.309Z,3.48
2023-11-18T09:54:38.856Z,3.61
2023-11-18T09:57:20.454Z,3.43
2023-11-18T10:00:27.613Z,3.46
2023-11-18T10:02:58.593Z,3.38
2023-11-18T10:05:31.528Z,3.45
2023-11-18T10:08:03.219Z,3.66
2023-11-18T10:10:38.011Z,3.83
2023-11-18T10:13:22.915Z,3.50
2023-11-18T10:15:53.725Z,3.74
2023-11-18T10:18:24.590Z,3.49
2023-11-18T10:20:54.446Z,3.25
2023-11-18T10:23:24.845Z,3.71
2023-11-18T10:25:58.357Z,3.47
2023-11-18T10:28:40.110Z,3.69
2023-11-18T10:31:10.735Z,3.63
2023-11-18T10:33:43.310Z,3.53
2023-11-18T10:36:26.373Z,3.67
2023-11-18T10:38:57.611Z,3.58
2023-11-18T10:41:25.868Z,3.37
2023-11-18T10:44:16.076Z,2.99
2023-11-18T10:46:54.953Z,3.50
2023-11-18T10:49:23.458Z,2.97
2023-11-18T10:51:52.914Z,3.06
2023-11-18T10:54:20.748Z,2.96
2023-11-18T10:56:49.698Z,3.44
2023-11-18T10:59:19.495Z,3.11
2023-11-18T11:01:50.811Z,2.75
2023-11-18T11:04:22.211Z,2.74
2023-11-18T11:06:54.788Z,3.08
2023-11-18T11:09:29.804Z,2.85
2023-11-18T11:12:05.569Z,2.52
2023-11-18T11:14:42.688Z,2.48
2023-11-18T11:17:25.112Z,2.16
2023-11-18T11:20:18.225Z,2.31
2023-11-18T11:23:16.416Z,2.13
2023-11-18T11:25:54.517Z,2.41
2023-11-18T11:28:23.771Z,2.27
2023-11-18T11:31:02.254Z,2.08
2023-11-18T11:33:41.714Z,2.02
2023-11-18T11:36:17.606Z,2.23
2023-11-18T11:38:48.050Z,2.30
2023-11-18T11:41:20.975Z,2.24
2023-11-18T11:43:50.441Z,2.40
2023-11-18T11:46:24.658Z,2.26
2023-11-18T11:48:56.868Z,2.35
2023-11-18T11:51:38.685Z,2.07
2023-11-18T11:54:30.392Z,2.49
2023-11-18T11:57:01.107Z,2.58
2023-11-18T11:59:58.541Z,2.87
2023-11-18T12:02:33.676Z,2.60
2023-11-18T12:05:08.036Z,2.46
2023-11-18T12:07:40.212Z,2.44
2023-11-18T12:10:21.624Z,2.30
2023-11-18T12:12:49.971Z,2.26
2023-11-18T12:15:38.088Z,2.43
2023-11-18T12:18:06.129Z,2.30
2023-11-18T12:20:43.878Z,2.23
2023-11-18T12:23:19.361Z,2.16
2023-11-18T12:25:47.923Z,2.36
2023-11-18T12:28:23.029Z,2.05
2023-11-18T12:30:53.907Z,2.19
2023-11-18T12:33:24.845Z,1.96
2023-11-18T12:35:52.932Z,1.76
2023-11-18T12:38:47.023Z,1.69
2023-11-18T12:41:43.730Z,1.63
2023-11-18T12:44:25.206Z,1.56
2023-11-18T12:46:56.584Z,1.85
2023-11-18T12:49:26.182Z,1.98
2023-11-18T12:51:57.002Z,1.91
2023-11-18T12:54:28.513Z,2.00
2023-11-18T12:57:02.235Z,1.82
2023-11-18T12:59:31.898Z,1.56
2023-11-18T13:01:59.944Z,1.69
2023-11-18T13:04:31.601Z,1.59
2023-11-18T13:07:01.252Z,1.70
2023-11-18T13:09:33.136Z,1.72
2023-11-18T13:12:05.776Z,1.54
2023-11-18T13:14:38.097Z,1.48
2023-11-18T13:17:10.620Z,1.36
2023-11-18T13:19:38.486Z,1.42
2023-11-18T13:22:12.203Z,1.37
2023-11-18T13:24:45.507Z,1.42
2023-11-18T13:27:20.858Z,1.53
2023-11-18T13:29:54.249Z,1.24
2023-11-18T13:32:28.090Z,1.52
2023-11-18T13:34:56.334Z,1.56
2023-11-18T13:37:24.649Z,1.49
2023-11-18T13:40:00.054Z,1.41
2023-11-18T13:42:32.773Z,1.42
2023-11-18T13:45:14.121Z,1.37
2023-11-18T13:47:51.156Z,1.34
2023-11-18T13:50:20.507Z,1.13
2023-11-18T13:52:49.326Z,1.20
2023-11-18T13:55:18.650Z,1.24
2023-11-18T13:57:46.811Z,1.18
2023-11-18T14:00:17.660Z,1.06
2023-11-18T14:02:47.475Z,1.12
2023-11-18T14:05:20.568Z,1.08
2023-11-18T14:07:49.807Z,1.13
2023-11-18T14:10:20.600Z,0.93
2023-11-18T14:13:10.764Z,0.90
2023-11-18T14:15:38.796Z,1.04
2023-11-18T14:18:09.198Z,1.05
2023-11-18T14:20:37.877Z,1.05
2023-11-18T14:23:06.530Z,0.96
2023-11-18T14:25:35.122Z,1.07
2023-11-18T14:28:06.558Z,0.99
2023-11-18T14:30:35.547Z,0.97
2023-11-18T14:33:05.078Z,0.98
2023-11-18T14:35:32.859Z,0.98
2023-11-18T14:38:02.269Z,1.01
2023-11-18T14:40:29.986Z,1.00
2023-11-18T14:42:58.238Z,0.86
2023-11-18T14:45:27.044Z,1.04
2023-11-18T14:47:57.290Z,0.86
2023-11-18T14:50:27.118Z,0.83
2023-11-18T14:53:01.475Z,0.82
2023-11-18T14:55:31.134Z,0.90
2023-11-18T14:57:58.802Z,0.64
2023-11-18T15:00:28.652Z,0.86
2023-11-18T15:03:00.017Z,0.69
2023-11-18T15:05:29.340Z,0.69
2023-11-18T15:08:01.973Z,0.77
2023-11-18T15:10:30.408Z,0.76
2023-11-18T15:13:01.927Z,0.69
2023-11-18T15:15:38.047Z,0.72
2023-11-18T15:18:11.189Z,0.55
2023-11-18T15:20:46.020Z,0.60
2023-11-18T15:23:23.626Z,0.53
2023-11-18T15:25:51.571Z,0.57
2023-11-18T15:28:20.031Z,0.47
2023-11-18T15:30:48.066Z,0.48
2023-11-18T15:33:16.657Z,0.59
2023-11-18T15:35:44.783Z,0.68
2023-11-18T15:38:19.136Z,0.61
2023-11-18T15:40:51.371Z,0.60
2023-11-18T15:43:19.450Z,0.46
2023-11-18T15:45:48.310Z,0.52
2023-11-18T15:48:16.261Z,0.56
2023-11-18T15:50:44.327Z,0.47
2023-11-18T15:53:15.593Z,0.64
2023-11-18T15:55:48.966Z,0.64
2023-11-18T15:58:20.250Z,0.57
2023-11-18T16:00:48.480Z,0.54
2023-11-18T16:03:16.470Z,0.57
2023-11-18T16:05:44.518Z,0.58
2023-11-18T16:08:12.276Z,0.59
2023-11-18T16:10:40.196Z,0.63
2023-11-18T16:13:07.993Z,0.60
2023-11-18T16:15:36.998Z,0.60
2023-11-18T16:18:05.319Z,0.52
2023-11-18T16:20:34.137Z,0.61
2023-11-18T16:23:06.656Z,0.61
2023-11-18T16:25:38.680Z,0.68
2023-11-18T16:28:09.204Z,0.68
2023-11-18T16:30:38.766Z,0.67
2023-11-18T16:33:06.989Z,0.64
2023-11-18T16:35:34.757Z,0.65
2023-11-18T16:38:03.754Z,0.50
2023-11-18T16:40:34.430Z,0.46
2023-11-18T16:43:02.954Z,0.53
2023-11-18T16:45:30.885Z,0.54
2023-11-18T16:47:59.250Z,0.55
2023-11-18T16:50:30.641Z,0.58
2023-11-18T16:53:00.986Z,0.55
2023-11-18T16:55:32.250Z,0.51
2023-11-18T16:58:01.435Z,0.61
2023-11-18T17:00:30.597Z,0.64
2023-11-18T17:03:00.058Z,0.58
2023-11-18T17:05:31.210Z,0.69
2023-11-18T17:08:00.967Z,0.63
2023-11-18T17:10:29.360Z,0.57
2023-11-18T17:12:59.276Z,0.59
2023-11-18T17:15:27.503Z,0.89
2023-11-18T17:18:03.053Z,1.04
2023-11-18T17:20:32.270Z,0.98
2023-11-18T17:23:00.185Z,1.15
2023-11-18T17:25:28.236Z,0.92
2023-11-18T17:27:55.967Z,0.73
2023-11-18T17:30:24.442Z,0.68
2023-11-18T17:32:55.326Z,0.74
2023-11-18T17:35:23.486Z,0.85
2023-11-18T17:37:51.511Z,0.79
2023-11-18T17:40:22.785Z,1.06
2023-11-18T17:42:54.858Z,0.98
2023-11-18T17:45:25.625Z,0.58
2023-11-18T17:47:53.891Z,0.57
2023-11-18T17:50:22.661Z,0.64
2023-11-18T17:52:53.454Z,0.66
2023-11-18T17:55:21.619Z,0.90
2023-11-18T17:57:49.793Z,0.74
2023-11-18T18:00:21.818Z,0.75
2023-11-18T18:02:50.620Z,0.65
2023-11-18T18:05:19.127Z,0.56
2023-11-18T18:07:47.355Z,0.69
2023-11-18T18:10:15.371Z,0.90
2023-11-18T18:12:46.638Z,0.86
2023-11-18T18:15:15.000Z,0.79
2023-11-18T18:17:43.980Z,0.74
2023-11-18T18:20:13.614Z,0.63
2023-11-18T18:22:43.886Z,0.69
2023-11-18T18:25:13.536Z,0.73
2023-11-18T18:27:42.439Z,0.66
2023-11-18T18:30:14.052Z,0.92
2023-11-18T18:32:42.186Z,1.00
2023-11-18T18:35:12.035Z,0.70
2023-11-18T18:37:40.228Z,0.70
2023-11-18T18:40:08.471Z,0.65
2023-11-18T18:42:36.553Z,0.71
2023-11-18T18:45:04.701Z,0.76
2023-11-18T18:47:32.512Z,0.79
2023-11-18T18:50:00.510Z,0.77
2023-11-18T18:52:28.582Z,1.03
2023-11-18T18:54:56.346Z,0.96
2023-11-18T18:57:25.595Z,0.77
2023-11-18T18:59:54.004Z,0.89
2023-11-18T19:02:21.913Z,0.71
2023-11-18T19:04:50.345Z,0.56
2023-11-18T19:07:19.847Z,0.60
2023-11-18T19:09:47.990Z,0.64
2023-11-18T19:12:16.093Z,0.74
2023-11-18T19:14:43.989Z,0.67
2023-11-18T19:17:11.741Z,0.69
2023-11-18T19:19:39.413Z,0.72
2023-11-18T19:22:07.564Z,0.71
2023-11-18T19:24:35.558Z,1.16
2023-11-18T19:27:03.351Z,1.00
2023-11-18T19:29:31.274Z,0.94
2023-11-18T19:31:59.415Z,0.99
2023-11-18T19:34:27.303Z,0.81
2023-11-18T19:36:55.153Z,0.80
2023-11-18T19:39:22.803Z,0.88
2023-11-18T19:41:51.226Z,0.99
2023-11-18T19:44:19.056Z,0.94
2023-11-18T19:46:51.245Z,0.92
2023-11-18T19:49:19.576Z,1.01
2023-11-18T19:51:47.511Z,0.90
2023-11-18T19:54:15.249Z,0.98
2023-11-18T19:56:44.019Z,0.91
2023-11-18T19:59:11.848Z,0.84
2023-11-18T20:01:39.710Z,0.85
2023-11-18T20:04:07.935Z,0.88
2023-11-18T20:06:35.889Z,0.76
2023-11-18T20:09:04.151Z,0.78
2023-11-18T20:11:32.393Z,0.69
2023-11-18T20:14:01.162Z,0.71
2023-11-18T20:16:29.845Z,0.76
2023-11-18T20:18:57.671Z,0.67
2023-11-18T20:21:25.883Z,0.57
2023-11-18T20:23:53.696Z,0.62
2023-11-18T20:26:22.651Z,0.79
2023-11-18T20:28:50.507Z,0.83
2023-11-18T20:31:18.298Z,0.73
2023-11-18T20:33:46.685Z,0.61
2023-11-18T20:36:14.773Z,0.83
2023-11-18T20:38:44.233Z,0.72
2023-11-18T20:41:15.493Z,0.72
2023-11-18T20:43:48.327Z,0.71
2023-11-18T20:46:17.104Z,0.66
2023-11-18T20:48:45.355Z,0.61
2023-11-18T20:51:15.542Z,0.56
2023-11-18T20:53:43.350Z,0.61
2023-11-18T20:56:11.168Z,0.66
2023-11-18T20:58:41.259Z,0.65
2023-11-18T21:01:12.509Z,0.92
2023-11-18T21:03:40.463Z,0.93
2023-11-18T21:06:08.890Z,0.84
2023-11-18T21:08:36.874Z,0.71
2023-11-18T21:11:04.947Z,0.82
2023-11-18T21:13:35.874Z,0.82
2023-11-18T21:16:03.801Z,0.76
2023-11-18T21:18:31.509Z,0.64
2023-11-18T21:20:59.392Z,0.75
2023-11-18T21:23:27.367Z,0.83
2023-11-18T21:25:55.142Z,0.88
2023-11-18T21:28:23.008Z,0.75
2023-11-18T21:30:50.984Z,0.83
2023-11-18T21:33:18.881Z,0.73
2023-11-18T21:35:46.818Z,0.81
2023-11-18T21:38:14.871Z,0.91
2023-11-18T21:40:42.560Z,0.86
2023-11-18T21:43:10.482Z,0.93
2023-11-18T21:45:38.852Z,0.91
2023-11-18T21:48:07.805Z,0.82
2023-11-18T21:50:36.102Z,0.90
2023-11-18T21:53:04.166Z,0.93
2023-11-18T21:55:31.832Z,0.78
2023-11-18T21:57:59.447Z,0.98
2023-11-18T22:00:27.471Z,1.00
2023-11-18T22:02:55.375Z,0.88
2023-11-18T22:05:24.404Z,0.89
2023-11-18T22:07:52.380Z,1.02
2023-11-18T22:10:22.458Z,0.89
2023-11-18T22:12:52.782Z,0.92
2023-11-18T22:15:23.441Z,0.90
2023-11-18T22:17:53.130Z,0.74
2023-11-18T22:20:25.858Z,0.72
2023-11-18T22:22:53.880Z,0.60
2023-11-18T22:25:21.774Z,0.61
2023-11-18T22:27:49.514Z,0.69
2023-11-18T22:30:17.807Z,0.51
2023-11-18T22:32:45.954Z,0.59
2023-11-18T22:35:13.732Z,0.56
2023-11-18T22:37:41.458Z,0.56
2023-11-18T22:40:17.315Z,0.85
2023-11-18T22:42:48.413Z,0.64
2023-11-18T22:45:21.001Z,0.58
2023-11-18T22:47:51.734Z,0.72
2023-11-18T22:50:22.816Z,0.73
2023-11-18T22:52:51.467Z,0.79
2023-11-18T22:55:23.252Z,0.81
2023-11-18T22:57:51.343Z,0.81
2023-11-18T23:00:54.537Z,0.88
2023-11-18T23:03:23.155Z,0.93
2023-11-18T23:05:54.992Z,0.99
2023-11-18T23:08:23.477Z,0.98
2023-11-18T23:10:52.503Z,1.00
2023-11-18T23:13:21.081Z,1.10
2023-11-18T23:15:49.283Z,1.11
2023-11-18T23:18:20.220Z,1.04
2023-11-18T23:20:48.306Z,1.13
2023-11-18T23:23:16.152Z,1.06
2023-11-18T23:25:43.838Z,1.03
2023-11-18T23:28:11.786Z,1.03
2023-11-18T23:30:39.984Z,1.09
2023-11-18T23:33:09.189Z,1.02
2023-11-18T23:35:38.767Z,0.98
2023-11-18T23:38:06.892Z,0.95
2023-11-18T23:40:34.780Z,0.85
2023-11-18T23:43:02.721Z,1.00
2023-11-18T23:45:32.280Z,0.93
2023-11-18T23:48:00.346Z,0.66
2023-11-18T23:50:32.465Z,0.80
2023-11-18T23:53:00.766Z,0.80
2023-11-18T23:55:28.508Z,0.80
2023-11-18T23:57:56.341Z,0.78
